SEASEATTLE-TACOMA INTL
METARs for airports near SEA, sorted by distance:
N 0 nm 432' KSEA 250453Z 14007KT 10SM BKN110 OVC200 06/01 A3045
NE 4 nm 32' KRNT 250453Z 13004KT 10SM SCT110 05/01 A3046
N 4 nm 21' KBFI 250453Z 15005KT 10SM CLR 05/01 A3046
SW 15 nm 294' KTIW 250453Z 16003KT 10SM FEW120 04/01 A3045
W 18 nm 444' KPWT 250456Z 19005KT 10SM OVC110 04/01 A3043
S 19 nm 322' KTCM 250458Z 00000KT 10SM BKN110 03/01 A3045
S 20 nm 537' KPLU 250455Z 00000KT BKN110 03/03 A3045
SW 24 nm 301' KGRF 250458Z 15004KT 10SM BKN110 03/03 A3045
N 27 nm 607' KPAE 250453Z VRB06KT 10SM BKN110 05/00 A3043
W 36 nm 272' KSHN 250453Z 00000KT 10SM BKN120 03/02 A3041
SW 37 nm 207' KOLM 250454Z 00000KT 10SM SCT120 02/01 A3046
N 43 nm 141' KAWO 250456Z 00000KT 10SM BKN110 03/02 A3044
SW 53 nm 177' KCLS 250455Z 00000KT 10SM OVC110 03/03 A3047
N 55 nm 47' KNUW 250456Z 11009KT 10SM FEW036 BKN110 BKN140 OVC250 06/01 A3043
NW 60 nm 13' KNOW 250455Z 25005KT 10SM BKN090 OVC110 05/02 A3039
N 61 nm 145' KBVS 250455Z 09005KT SCT075 BKN090 OVC110 04/01 A3041
NW 62 nm 291' KCLM 250453Z 25004KT 10SM OVC080 03/00 A3039
NW 70 nm 112' KFHR 250453Z 09004KT 10SM BKN095 OVC110 05/02 A3040
SW 72 nm 17' KHQM 250453Z 00000KT 10SM FEW080 BKN100 05/02 A3044
E 76 nm 1763' KELN 250453Z 02004KT 10SM CLR 00/M06 A3042
N 79 nm 34' KORS 250455Z 00000KT 10SM BKN075 OVC090 04/02 A3039
N 81 nm 171' KBLI 250453Z 00000KT 10SM BKN100 04/01 A3039
S 83 nm 20' KKLS 250456Z 00000KT 10SM FEW120 03/02 A3048
NW 84 nm 64' CYYJ 250500Z 24006KT 15SM FEW034 FEW065 SCT081 OVC100 05/01 A3039
E 85 nm 1248' KEAT 250455Z 05004KT 10SM CLR 01/M04 A3041
SE 89 nm 1098' KYKM 250453Z 28005KT 10SM CLR 01/M06 A3046
W 95 nm 193' KUIL 250453Z 15006KT 10SM BKN070 OVC090 05/M01 A3039
TAFs for airports near SEA, sorted by distance:
N 0 nm 432' KSEA KSEA 250306Z 2503/2606 16007KT P6SM BKN100 OVC250
  FM250900 17008KT P6SM OVC050
  FM251200 16012KT P6SM -RA OVC025
  FM251800 22015G25KT P6SM -SHRA OVC025
N 4 nm 21' KBFI TAF KBFI 242320Z 2500/2524 23004KT P6SM SCT030 OVC250
  FM250300 16007KT P6SM BKN100 OVC250
  FM250900 17008KT P6SM OVC050
  FM251200 16010KT P6SM -RA OVC025
  FM251800 22015G25KT P6SM -SHRA OVC025
W 18 nm 444' KPWT TAF KPWT 242320Z 2500/2524 VRB03KT P6SM SCT030 OVC250
  FM250300 16007KT P6SM BKN100 OVC250
  FM250900 17008KT P6SM OVC050
  FM251200 16010KT P6SM -RA OVC025
  FM251900 20020G30KT P6SM -SHRA OVC015
S 19 nm 322' KTCM TAF KTCM 250505Z 2505/2611 VRB06KT 9999 BKN120 QNH3046INS
  BECMG 2508/2509 18009KT 9000 -SHRA BKN040 OVC050 610409 QNH3028INS
  BECMG 2511/2512 20014G20KT 8000 -RA OVC015 620159 520009 QNH3016INS
  TEMPO 2512/2515 -RASN BKN007 OVC015 630159
  BECMG 2514/2515 22014G20KT 8000 SHRA BKN007 OVC015 613039 530009 QNH3011INS
  BECMG 2518/2519 24018G25KT 8000 -RA BKN015 620309 530009 QNH3013INS
  TEMPO 2521/2606 26020G30KT
  BECMG 2606/2607 26012G20KT 8000 -SHRA BKN010 OVC030 610259 530009 QNH3006INS TX06/2521Z TN00/2512Z
SW 24 nm 301' KGRF TAF KGRF 250500Z 2505/2611 16005KT 9999 BKN100 OVC250 QNH3046INS
  BECMG 2509/2510 17009KT 9999 OVC050 QNH3037INS
  BECMG 2511/2512 20011KT 9000 -RA OVC020 630208 QNH3028INS
  BECMG 2517/2518 25012G20KT 9000 -SHRA OVC015 630208 QNH3019INS TX06/2521Z TN04/2507Z
N 27 nm 607' KPAE TAF KPAE 242320Z 2500/2524 00000KT P6SM FEW050 OVC250
  FM250300 16007KT P6SM BKN100 OVC250
  FM250900 17012KT P6SM OVC050
  FM251100 16015G25KT P6SM -RA OVC025
  FM251900 20020G30KT P6SM -SHRA OVC015
SW 37 nm 207' KOLM TAF KOLM 242320Z 2500/2524 20005KT P6SM FEW035 OVC250
  FM250300 16007KT P6SM BKN100 OVC250
  FM250900 17009KT P6SM OVC050
  FM251100 20011KT P6SM -RA OVC025
  FM251900 25012G20KT P6SM -SHRA OVC025
N 55 nm 47' KNUW TAF KNUW 2415/2515 VRB06KT 9999 SCT020 SCT060 BKN250 QNH3055INS
  TEMPO 2415/2419 14007KT 9000 BR BCFG BKN020 BKN250
  FM242000 13009KT 9999 SCT015 SCT025 QNH3036INS
  TEMPO 2501/2507 13012G21KT BKN020 BKN030
  FM250700 16015G25KT 9999 -RA BKN025 540009 540903 650309 651205 QNH3010INS
  TEMPO 2509/2515 16022G36KT 4800 -RA BKN015 BKN028 OVC050 T00/2415Z T07/2523Z FS30004
NW 62 nm 291' KCLM TAF KCLM 242320Z 2500/2524 VRB03KT P6SM FEW030 OVC250
  FM250300 VRB03KT P6SM OVC100
  FM250700 24006KT P6SM OVC050
  FM251200 25012KT P6SM -RA OVC015
  FM251800 28015G25KT P6SM -SHRA BKN025
  FM252200 28025G35KT P6SM BKN050
SW 72 nm 17' KHQM TAF KHQM 242320Z 2500/2524 11004KT P6SM FEW030 BKN100 OVC250
  FM250600 14008KT P6SM VCSH OVC100
  FM250900 15015G25KT P6SM -RA OVC050
  FM251200 19020G30KT 5SM -RA OVC015
  FM251600 23015G25KT P6SM -SHRA OVC020
N 81 nm 171' KBLI TAF KBLI 242320Z 2500/2524 20006KT P6SM OVC250
  FM250600 14010KT P6SM OVC100
  FM250900 14012G20KT P6SM -RA OVC050
  FM251200 15015G25KT P6SM -RA OVC025
  FM251800 18015G25KT P6SM -SHRA OVC025
E 85 nm 1248' KEAT KEAT 242353Z 2500/2524 VRB04KT P6SM BKN120 BKN200
  FM251100 VRB03KT P6SM OVC070 PROB30 2513/2515 6SM -SHSN OVC040
  FM251600 30008KT P6SM BKN070 OVC150 WS020/26040KT
  FM251900 29018G26KT P6SM SCT050 BKN060
  FM252200 30025G33KT P6SM SCT070 SCT120
SE 89 nm 1098' KYKM TAF KYKM 242320Z 2500/2524 VRB05KT P6SM SCT060
  FM250200 25006KT P6SM BKN200
  FM250800 24009KT P6SM OVC090
  FM251200 24011KT P6SM -SHRASN OVC040
  FM251600 27020G30KT P6SM BKN060

Shortcut to this page: http://wxbay.com.

Data may contain errors.